Michigan Logo

Marion, MI Single Family Real Estate Listings

54 Total Real Estate Listings * Click on table heading to sort
Date Posted Property Type Style Address Price Living Area Lot Size Price/Sq Ft.
2018-07-19 Single Family Contemporary 4315 Westhill Drive Marion, MI 48843 $1,350,000 4,752 sq. ft. 20,909 sq. ft. $284
2018-07-19 Single Family Colonial 4392 Sundance Crossing Marion, MI 48843 $549,000 3,736 sq. ft. 44,867 sq. ft. $147
2018-07-18 Single Family Colonial 198 Amber Glen Drive Marion, MI 48843 $425,000 2,584 sq. ft. 56,192 sq. ft. $164
2018-07-17 Single Family Colonial 2100 White Birch Trail Marion, MI 48843 $388,000 2,620 sq. ft. 479,160 sq. ft. $148
2018-07-17 Single Family Cape Cod 136 Summer Shade Drive Marion, MI 48843 $297,500 2,201 sq. ft. $135
2018-07-16 Single Family Cape Cod; Colonial 5233 Pleasant Lake Road Marion, MI 48843 $499,000 2,917 sq. ft. 175,111 sq. ft. $171
2018-07-16 Single Family Ranch 8010 Fenmore Marion, MI 48637 $56,000 864 sq. ft. 435,600 sq. ft. $65
2018-07-13 Single Family 2925 Rubbin Rd Marion, MI 48843 $355,000 1,712 sq. ft. 15,682 sq. ft. $207
2018-07-13 Single Family Ranch 125 Keddle Road Marion, MI 48843 $439,000 2,995 sq. ft. 136,778 sq. ft. $147
2018-07-13 Single Family Ranch 3077 Ridley Way Marion, MI 48843 $374,900 1,922 sq. ft. 21,780 sq. ft. $195
2018-07-12 Single Family Ranch 821 Dewars Street Marion, MI 48843 $245,000 1,456 sq. ft. 9,583 sq. ft. $168
2018-07-11 Single Family Raised Ranch 5550 Hinchey Rd Marion, MI 48843 $215,000 1,468 sq. ft. 87,120 sq. ft. $146
2018-07-10 Single Family Cape Cod 2813 High Meadows Drive Marion, MI 48843 $335,000 1,849 sq. ft. 84,506 sq. ft. $181
2018-07-09 Single Family Colonial 252 Abby Brook Lane Marion, MI 48843 $469,900 2,500 sq. ft. 50,094 sq. ft. $188
2018-07-06 Single Family Colonial 4155 Prairie Rose Drive Marion, MI 48843 $434,900 2,851 sq. ft. 52,272 sq. ft. $153
2018-07-06 Single Family Colonial 2571 Pinckney Road Marion, MI 48843 $365,000 3,050 sq. ft. 100,624 sq. ft. $120
2018-07-02 Single Family Ranch 1697 Triangle Lake Road Marion, MI 48843 $299,000 1,200 sq. ft. 2,614 sq. ft. $249
2018-06-27 Single Family Colonial 4084 Southwoods Drive Marion, MI 48843 $532,500 2,240 sq. ft. 20,473 sq. ft. $238
2018-06-26 Single Family 2298 Sexton Road Marion, MI 48843 $300,000 2,270 sq. ft. 140,699 sq. ft. $132
2018-06-23 Single Family Ranch 5408 Stone Garden Drive Marion, MI 48843 $370,000 1,880 sq. ft. 87,120 sq. ft. $197
2018-06-21 Single Family Colonial 198 Penobscot Drive Marion, MI 48843 $260,000 1,814 sq. ft. 6,098 sq. ft. $143
2018-06-20 Single Family Farmhouse 905 County Farm Road Marion, MI 48843 $247,900 2,200 sq. ft. 217,800 sq. ft. $113
2018-06-19 Single Family Colonial 1326 Hudson Drive Marion, MI 48843 $263,500 2,112 sq. ft. $125
2018-06-14 Single Family Colonial 1292 Hudson Drive Marion, MI 48843 $263,900 1,934 sq. ft. $136
2018-06-12 Single Family Ranch 5662 Hinchey Road Marion, MI 48843 $219,900 2,700 sq. ft. 130,680 sq. ft. $81
2018-06-09 Single Family Ranch 2842 Clivedon Street Marion, MI 48843 $279,900 1,475 sq. ft. $190
2018-06-07 Single Family Colonial 3585 Black Eagle Drive Marion, MI 48843 $349,900 2,397 sq. ft. 43,996 sq. ft. $146
2018-06-07 Single Family Ranch 4146 Pinckney Road Marion, MI 48843 $419,900 3,523 sq. ft. 435,600 sq. ft. $119
2018-06-04 Single Family Colonial 348 Crystal Crossing Drive Marion, MI 48843 $264,900 2,466 sq. ft. 9,148 sq. ft. $107
2018-06-04 Single Family Colonial 338 Crystal Crossing Drive Marion, MI 48843 $232,900 1,934 sq. ft. 9,148 sq. ft. $120
2018-06-01 Single Family Colonial 305 Wood Court Marion, MI 48843 $234,900 2,003 sq. ft. 6,534 sq. ft. $117
2018-06-01 Single Family Colonial 495 Crystal Wood Circle Marion, MI 48843 $250,900 2,236 sq. ft. 10,454 sq. ft. $112
2018-06-01 Single Family Ranch 231 Crystal Wood Circle Marion, MI 48843 $247,900 1,600 sq. ft. 6,970 sq. ft. $155
2018-06-01 Single Family Colonial 1200 Weatherstone Lane Lane Marion, MI 48843 $349,900 2,626 sq. ft. $133
2018-05-30 Single Family Colonial 2814 Clivedon Road Marion, MI 48843 $364,900 2,258 sq. ft. 32,670 sq. ft. $162
2018-05-29 Single Family Ranch 1240 Hudson Drive Marion, MI 48843 $259,900 1,748 sq. ft. 5,227 sq. ft. $149
2018-05-29 Single Family Contemporary; Ranch 4700 Hawthorne Drive Marion, MI 48843 $348,900 2,202 sq. ft. 154,638 sq. ft. $158
2018-05-24 Single Family Colonial 2434 Sundance Ridge Marion, MI 48843 $373,000 2,652 sq. ft. 78,844 sq. ft. $141
2018-05-23 Single Family Colonial 215 Crystal Wood Circle Marion, MI 48843 $284,900 2,720 sq. ft. 6,970 sq. ft. $105
2018-05-20 Single Family Colonial 2897 Clivedon Road Marion, MI 48843 $334,900 2,050 sq. ft. 47,480 sq. ft. $163
2018-05-17 Single Family Contemporary 2705 Black Eagle Ridge Marion, MI 48843 $404,555 2,982 sq. ft. 44,867 sq. ft. $136
2018-05-16 Single Family Ranch 285 Burkhart Road Marion, MI 48843 $248,900 1,532 sq. ft. 38,768 sq. ft. $162
2018-05-14 Single Family Farmhouse 4810 Loree Rd Marion, MI 48427 $119,000 1,600 sq. ft. 261,360 sq. ft. $74
2018-05-11 Single Family Colonial 2279 Sundance Ridge Marion, MI 48843 $649,999 5,600 sq. ft. $116
2018-05-11 Single Family Cape Cod 1685 County Farm Road Marion, MI 48843 $449,900 2,849 sq. ft. 243,936 sq. ft. $158
2018-05-11 Single Family Colonial 363 Granite Drive Marion, MI 48843 $354,900 2,560 sq. ft. 32,234 sq. ft. $139
2018-05-06 Single Family Ranch 936 Pingree Road Marion, MI 48843 $525,000 3,135 sq. ft. 143,748 sq. ft. $167
2018-04-24 Single Family Ranch 2233 Wild Cherry Marion, MI 48843 $435,000 2,114 sq. ft. 45,738 sq. ft. $206
2018-04-12 Single Family Colonial 1237 Weatherstone Lane Marion, MI 48843 $313,900 2,075 sq. ft. $151
2018-04-12 Single Family Ranch Lot #2 Stone Garden Drive Marion, MI 48843 $299,000 1,456 sq. ft. 87,556 sq. ft. $205
2018-02-23 Single Family Colonial 2214 White Hawk Trail Marion, MI 48843 $448,900 2,568 sq. ft. 43,560 sq. ft. $175
2017-12-22 Single Family Cape Cod 00 Chestnut Creek Drive Marion, MI 48844 $550,000 1,837 sq. ft. 228,254 sq. ft. $299
2017-12-21 Single Family Colonial Vac Cactus Flower Court Marion, MI 48843 $375,000 2,500 sq. ft. 55,321 sq. ft. $150
2017-12-04 Single Family Ranch 977 Sexton Rd, Howell Marion, MI 48843 $519,000 2,000 sq. ft. 1,655,280 sq. ft. $260